Truth Or Consequences Municipal Airport
KTCS : rendu visible

Aérodrome :











RETROUVEZ-NOUS SUR...

 
LOGIN :

S'inscrire | Disclaimer

   EN    FR    IT 

 









Légende :    VFR   VFR Marginal   IFR   IFR Intensif   IFR Très Intensif
Visi : 
Plafond : 
>= 8 km
>= 3000ft
5 à 8 km
1000 à 3000 ft
1500m à 5 km
500 à 1000 ft
800 à 1500m
200 à 500 ft
< 800m
< 200 ft
Symboles :   Orages  Brouillard  Fortes neiges  Fortes précipitations  Vent > 20 kt






- Altitude de l'aérodrome : 4853 ft


KTCS - Truth Or Consequences Municipal

DERNIER METAR :
  • 060253Z AUTO 05003KT 10SM CLR 33/03 A2996 RMK AO2 SLP041 T03280028 53005 $

METARs EXPIRÉS :
  • 060153Z AUTO 14004KT 10SM CLR 35/03 A2995 RMK AO2 SLP036 T03500028 $
  • 060053Z AUTO 09005KT 10SM CLR 36/03 A2994 RMK AO2 SLP036 T03610033 $

TAF KTCS
Valide du 06 à 00h jusqu'au 07 à 00h UTC


052323Z 0600/0624 VRB05KT P6SM SCT120
FM061200 12010KT P6SM SCT250
FM062000 04009G18KT P6SM SCT080 BKN250
FIR KZAB / Amérique du Nord



MET'MAP, la Météo Aéronautique d'un coup d'oeil ! - Copyright ORBIFLY Décembre 2007 - Disclaimer

ORBIFLY MET'MAP TEAM :

Programmation & Développement : Alexandra Zaïnal
Sur une idée originale de : Baudouin d'Aumeries
Assistance à la programmation : Marc-Olivier Méhu
Soutien technique & logistique : Manuel Goepfert

Contact : metmap@orbifly.com




SOURCES & CREDITS :

   NOAA       Earth
Advisory